Map

Track Data

SID SEASON NUMBER BASIN SUBBASIN NAME ISO_TIME NATURE LAT LON WMO_WIND WMO_PRES WMO_AGENCY TRACK_TYPE DIST2LAND LANDFALL IFLAG USA_AGENCY USA_ATCF_ID USA_LAT USA_LON USA_RECORD USA_STATUS USA_WIND USA_PRES USA_SSHS USA_R34_NE USA_R34_SE USA_R34_SW USA_R34_NW USA_R50_NE USA_R50_SE USA_R50_SW USA_R50_NW USA_R64_NE USA_R64_SE USA_R64_SW USA_R64_NW USA_POCI USA_ROCI USA_RMW USA_EYE TOKYO_LAT TOKYO_LON TOKYO_GRADE TOKYO_WIND TOKYO_PRES TOKYO_R50_DIR TOKYO_R50_LONG TOKYO_R50_SHORT TOKYO_R30_DIR TOKYO_R30_LONG TOKYO_R30_SHORT TOKYO_LAND CMA_LAT CMA_LON CMA_CAT CMA_WIND CMA_PRES HKO_LAT HKO_LON HKO_CAT HKO_WIND HKO_PRES NEWDELHI_LAT NEWDELHI_LON NEWDELHI_GRADE NEWDELHI_WIND NEWDELHI_PRES NEWDELHI_CI NEWDELHI_DP NEWDELHI_POCI REUNION_LAT REUNION_LON REUNION_TYPE REUNION_WIND REUNION_PRES REUNION_TNUM REUNION_CI REUNION_RMW REUNION_R34_NE REUNION_R34_SE REUNION_R34_SW REUNION_R34_NW REUNION_R50_NE REUNION_R50_SE REUNION_R50_SW REUNION_R50_NW REUNION_R64_NE REUNION_R64_SE REUNION_R64_SW REUNION_R64_NW BOM_LAT BOM_LON BOM_TYPE BOM_WIND BOM_PRES BOM_TNUM BOM_CI BOM_RMW BOM_R34_NE BOM_R34_SE BOM_R34_SW BOM_R34_NW BOM_R50_NE BOM_R50_SE BOM_R50_SW BOM_R50_NW BOM_R64_NE BOM_R64_SE BOM_R64_SW BOM_R64_NW BOM_ROCI BOM_POCI BOM_EYE BOM_POS_METHOD BOM_PRES_METHOD NADI_LAT NADI_LON NADI_CAT NADI_WIND NADI_PRES WELLINGTON_LAT WELLINGTON_LON WELLINGTON_WIND WELLINGTON_PRES DS824_LAT DS824_LON DS824_STAGE DS824_WIND DS824_PRES TD9636_LAT TD9636_LON TD9636_STAGE TD9636_WIND TD9636_PRES TD9635_LAT TD9635_LON TD9635_WIND TD9635_PRES TD9635_ROCI NEUMANN_LAT NEUMANN_LON NEUMANN_CLASS NEUMANN_WIND NEUMANN_PRES MLC_LAT MLC_LON MLC_CLASS MLC_WIND MLC_PRES USA_GUST BOM_GUST BOM_GUST_PER REUNION_GUST REUNION_GUST_PER USA_SEAHGT USA_SEARAD_NE USA_SEARAD_SE USA_SEARAD_SW USA_SEARAD_NW STORM_SPEED STORM_DIR
1985189N12260 1985 52 EP MM GUILLERMO 1985-07-07 18:00:00 TS 12.1000 -99.8000 25 hurdat_epa main 487 483 O_________O___ hurdat_epa EP071985 12.1000 -99.8000 TD 25 -1 12.1000 -99.8000 1 25 13 287
1985189N12260 1985 52 EP MM GUILLERMO 1985-07-07 21:00:00 TS 12.2950 -100.451 main 492 486 P_________P___ EP071985 12.2978 -100.452 TD 27 -1 12.2867 -100.446 1 27 13 287
1985189N12260 1985 52 EP MM GUILLERMO 1985-07-08 00:00:00 TS 12.5000 -101.100 30 hurdat_epa main 493 490 O_________O___ hurdat_epa EP071985 12.5000 -101.100 TD 30 -1 12.5000 -101.100 1 30 13 289
1985189N12260 1985 52 EP MM GUILLERMO 1985-07-08 03:00:00 TS 12.7304 -101.749 main 496 491 P_________P___ EP071985 12.7198 -101.743 TD 30 -1 12.7621 -101.769 1 30 14 292
1985189N12260 1985 52 EP MM GUILLERMO 1985-07-08 06:00:00 TS 13.0178 -102.412 30 hurdat_epa main 500 486 O_________P___ hurdat_epa EP071985 13.0000 -102.400 TD 30 -1 13.0713 -102.447 1 30 15 296
1985189N12260 1985 52 EP MM GUILLERMO 1985-07-08 09:00:00 TS 13.3880 -103.107 main 486 480 P_________P___ EP071985 13.3774 -103.100 TD 30 -1 13.4198 -103.127 1 30 16 300
1985189N12260 1985 52 EP MM GUILLERMO 1985-07-08 12:00:00 TS 13.8000 -103.800 30 hurdat_epa main 486 464 O_________O___ hurdat_epa EP071985 13.8000 -103.800 TD 30 -1 13.8000 -103.800 1 30 15 301
1985189N12260 1985 52 EP MM GUILLERMO 1985-07-08 15:00:00 TS 14.1829 -104.455 main 468 447 P_________P___ EP071985 14.1923 -104.458 TD 32 -1 14.1549 -104.447 1 31 15 302
1985189N12260 1985 52 EP MM GUILLERMO 1985-07-08 18:00:00 TS 14.5860 -105.097 35 hurdat_epa main 447 436 O_________P___ hurdat_epa EP071985 14.6000 -105.100 TS 35 0 14.5439 -105.088 1 32 15 304
1985189N12260 1985 52 EP MM GUILLERMO 1985-07-08 21:00:00 TS 15.0113 -105.735 main 437 433 P_________P___ EP071985 15.0197 -105.736 TS 35 0 14.9860 -105.735 1 33 16 306
1985189N12260 1985 52 EP MM GUILLERMO 1985-07-09 00:00:00 TS 15.5000 -106.400 35 hurdat_epa main 439 427 O_________O___ hurdat_epa EP071985 15.5000 -106.400 TS 35 0 15.5000 -106.400 2 35 17 308
1985189N12260 1985 52 EP MM GUILLERMO 1985-07-09 03:00:00 TS 16.0701 -107.136 main 423 422 P_________P___ EP071985 16.0550 -107.143 TS 37 0 16.1153 -107.115 2 37 19 311
1985189N12260 1985 52 EP MM GUILLERMO 1985-07-09 06:00:00 TS 16.7244 -107.887 40 hurdat_epa main 430 422 O_________P___ hurdat_epa EP071985 16.7000 -107.900 TS 40 0 16.7975 -107.849 2 40 20 314
1985189N12260 1985 52 EP MM GUILLERMO 1985-07-09 09:00:00 TS 17.4526 -108.613 main 426 426 P_________P___ EP071985 17.4348 -108.623 TS 42 0 17.5059 -108.584 2 42 20 318
1985189N12260 1985 52 EP MM GUILLERMO 1985-07-09 12:00:00 TS 18.2000 -109.300 45 hurdat_epa main 447 446 O_________O___ hurdat_epa EP071985 18.2000 -109.300 TS 45 0 18.2000 -109.300 2 45 19 320
1985189N12260 1985 52 EP MM GUILLERMO 1985-07-09 15:00:00 TS 18.9177 -109.908 main 447 382 P_________P___ EP071985 18.9370 -109.901 TS 47 0 18.8598 -109.929 2 45 18 320
1985189N12260 1985 52 EP MM GUILLERMO 1985-07-09 18:00:00 TS 19.5735 -110.511 50 hurdat_epa main 372 333 O_________P___ hurdat_epa EP071985 19.6000 -110.500 TS 50 0 19.4939 -110.542 2 45 17 316
1985189N12260 1985 52 EP MM GUILLERMO 1985-07-09 21:00:00 TS 20.1230 -111.163 main 336 319 P_________P___ EP071985 20.1370 -111.156 TS 47 0 20.0812 -111.185 2 45 17 308
1985189N12260 1985 52 EP MM GUILLERMO 1985-07-10 00:00:00 TS 20.6000 -111.900 45 hurdat_epa main 323 321 O_________O___ hurdat_epa EP071985 20.6000 -111.900 TS 45 0 20.6000 -111.900 2 45 18 302
1985189N12260 1985 52 EP MM GUILLERMO 1985-07-10 03:00:00 TS 21.0743 -112.766 main 351 351 P_________P___ EP071985 21.0873 -112.762 TS 42 0 21.0354 -112.775 2 42 19 297
1985189N12260 1985 52 EP MM GUILLERMO 1985-07-10 06:00:00 TS 21.4749 -113.705 40 hurdat_epa main 387 387 O_________P___ hurdat_epa EP071985 21.5000 -113.700 TS 40 0 21.3994 -113.721 2 40 19 291
1985189N12260 1985 52 EP MM GUILLERMO 1985-07-10 09:00:00 TS 21.7577 -114.670 main 418 418 P_________P___ EP071985 21.7724 -114.666 TS 37 0 21.7135 -114.681 2 37 18 287
1985189N12260 1985 52 EP MM GUILLERMO 1985-07-10 12:00:00 TS 22.0000 -115.600 35 hurdat_epa main 467 467 O_________O___ hurdat_epa EP071985 22.0000 -115.600 TS 35 0 22.0000 -115.600 2 35 17 289
1985189N12260 1985 52 EP MM GUILLERMO 1985-07-10 15:00:00 TS 22.3074 -116.432 main 511 511 P_________P___ EP071985 22.2995 -116.438 TS 32 -1 22.3312 -116.417 2 32 16 292
1985189N12260 1985 52 EP MM GUILLERMO 1985-07-10 18:00:00 TS 22.6094 -117.196 30 hurdat_epa main 565 565 O_________P___ hurdat_epa EP071985 22.6000 -117.200 TD 30 -1 22.6377 -117.182 2 30 15 293
1985189N12260 1985 52 EP MM GUILLERMO 1985-07-10 21:00:00 TS 22.8848 -117.919 main 595 595 P_________P___ EP071985 22.8796 -117.923 TD 27 -1 22.9004 -117.907 2 27 14 291
1985189N12260 1985 52 EP MM GUILLERMO 1985-07-11 00:00:00 TS 23.1000 -118.600 25 hurdat_epa main 623 623 O_________O___ hurdat_epa EP071985 23.1000 -118.600 TD 25 -1 23.1000 -118.600 1 25 13 286
1985189N12260 1985 52 EP MM GUILLERMO 1985-07-11 03:00:00 TS 23.2383 -119.263 main 662 660 P_________P___ EP071985 23.2371 -119.258 TD 25 -1 23.2416 -119.280 1 23 12 280
1985189N12260 1985 52 EP MM GUILLERMO 1985-07-11 06:00:00 TS 23.3045 -119.908 25 hurdat_epa main 694 694 O_________P___ hurdat_epa EP071985 23.3000 -119.900 TD 25 -1 23.3181 -119.931 1 22 12 274
1985189N12260 1985 52 EP MM GUILLERMO 1985-07-11 09:00:00 TS 23.3312 -120.554 main 746 746 P_________P___ EP071985 23.3297 -120.550 TD 22 -1 23.3355 -120.566 1 21 12 270
1985189N12260 1985 52 EP MM GUILLERMO 1985-07-11 12:00:00 TS 23.3000 -121.200 20 hurdat_epa main 792 792 O_________O___ hurdat_epa EP071985 23.3000 -121.200 TD 20 -1 23.3000 -121.200 1 20 12 265
1985189N12260 1985 52 EP MM GUILLERMO 1985-07-11 15:00:00 TS 23.2212 -121.848 main 847 847 P_________P___ EP071985 23.2222 -121.850 TD 20 -1 23.2181 -121.842 1 20 12 260
1985189N12260 1985 52 EP MM GUILLERMO 1985-07-11 18:00:00 TS 23.1000 -122.498 20 hurdat_epa main 911 911 O_________P___ hurdat_epa EP071985 23.1000 -122.500 TD 20 -1 23.1001 -122.491 1 20 12 258
1985189N12260 1985 52 EP MM GUILLERMO 1985-07-11 21:00:00 TS 22.9559 -123.149 main 967 967 P_________P___ EP071985 22.9555 -123.150 TD 20 -1 22.9570 -123.145 1 20 12 256
1985189N12260 1985 52 EP MM GUILLERMO 1985-07-12 00:00:00 TS 22.8000 -123.800 20 hurdat_epa main 1039 O_________O___ hurdat_epa EP071985 22.8000 -123.800 TD 20 -1 22.8000 -123.800 1 20 12 255

About IBTrACS Database

This database is a web-friendly format of International Best Track Archive for Climate Stewardship (IBTrACS), a global best track data archive curated by NOAA dating back to 1842.

Updated: 2021-11-26